State Park Place, Illinois
Current Conditions -  °F | °C
As of 6:58 AM on Friday 24 Oct 2014 (Local Time) from KBLV Reporting Station
Haze Haze  
Wind Chill: 48°   Ceiling: Unl
Heat Index: 48°   Visibility: 6mi
Dew Point: 48°   Wind: 0mph
Humidity: 99%   Direction: NA
Pressure: 30.09"   Gusts: NA
Location:  38.6902°N, 89.9816°W
Report Text: KBLV 241158Z AUTO 00000KT 6SM BR FEW049 09/09 A3009 RMK AO2 SLP193 T00910090 10118 20090 51005
Loading
Personal Weather Stations






























Interactive Weather Map
Tropical Storm Tracking
New forecast layout! Learn more

10-Day Weather Forecast

Advertisements
Track Severe Weather on mobile